Time;durP1;ratioP1;P1;durP2;ratioP2;P2;SDS_P1;SDS_P2;PMS_P1;PMS_P2;Temp;Humidity;BMP_temperature;BMP_pressure;BME280_temperature;BME280_humidity;BME280_pressure;Samples;Min_cycle;Max_cycle;Signal;HPM_P1;HPM_P2
2023/06/23 00:01:02;;;;;;;6.87;5.10;;;;;;;18.82;78.24;100685.34;4992918;28;20229;-73
2023/06/23 00:03:30;;;;;;;7.57;5.40;;;;;;;18.82;78.59;100700.63;4992601;28;20672;-73
2023/06/23 00:05:57;;;;;;;7.33;5.07;;;;;;;18.82;79.22;100714.78;4995308;28;20308;-72
2023/06/23 00:08:24;;;;;;;8.50;6.10;;;;;;;18.81;78.85;100713.25;4990234;28;20244;-73
2023/06/23 00:10:51;;;;;;;8.47;6.17;;;;;;;18.82;80.08;100695.25;4996733;28;20200;-73
2023/06/23 00:13:18;;;;;;;7.73;6.70;;;;;;;18.82;79.47;100695.25;4993321;28;20202;-73
2023/06/23 00:15:45;;;;;;;10.73;7.03;;;;;;;18.83;78.93;100694.13;4990567;28;20198;-73
2023/06/23 00:18:12;;;;;;;9.97;7.27;;;;;;;18.84;79.99;100685.72;4990529;28;20229;-73
2023/06/23 00:20:38;;;;;;;9.43;7.73;;;;;;;18.84;80.25;100688.38;4992292;28;20220;-73
2023/06/23 00:23:04;;;;;;;9.13;7.23;;;;;;;18.87;79.41;100694.91;4991632;28;20243;-73
2023/06/23 00:25:32;;;;;;;12.80;6.50;;;;;;;18.88;79.25;100691.09;4992416;28;20263;-73
2023/06/23 00:27:59;;;;;;;10.67;7.13;;;;;;;18.89;81.03;100706.00;4990735;28;20257;-73
2023/06/23 00:30:26;;;;;;;11.27;7.53;;;;;;;18.88;79.70;100691.84;4993754;28;20680;-73
2023/06/23 00:32:52;;;;;;;8.57;7.27;;;;;;;18.90;79.59;100672.75;4991002;28;20679;-73
2023/06/23 00:35:19;;;;;;;9.63;7.27;;;;;;;18.91;79.85;100667.03;4990174;28;20287;-73
2023/06/23 00:37:46;;;;;;;9.03;6.77;;;;;;;18.90;79.84;100667.41;4990615;28;20348;-73
2023/06/23 00:40:15;;;;;;;9.13;7.33;;;;;;;18.91;79.52;100675.06;4991433;28;20219;-72
2023/06/23 00:42:47;;;;;;;7.47;6.77;;;;;;;18.94;79.00;100692.25;4990826;28;20224;-72
2023/06/23 00:45:14;;;;;;;11.43;7.80;;;;;;;18.94;78.88;100690.34;4990769;28;20304;-73
2023/06/23 00:47:43;;;;;;;8.80;7.30;;;;;;;18.96;79.24;100671.22;4991524;28;20244;-72
2023/06/23 00:50:13;;;;;;;6.83;5.97;;;;;;;18.96;79.32;100668.56;4989591;28;20854;-73
2023/06/23 00:52:39;;;;;;;10.37;6.87;;;;;;;18.95;79.56;100659.00;4990148;28;20307;-73
2023/06/23 00:55:06;;;;;;;9.40;6.77;;;;;;;18.95;79.16;100662.44;4993276;28;20320;-73
2023/06/23 00:57:33;;;;;;;8.87;6.90;;;;;;;18.94;79.69;100671.59;4989738;28;20240;-73
2023/06/23 01:00:01;;;;;;;10.60;7.57;;;;;;;18.96;80.18;100668.56;4984183;28;20217;-72
2023/06/23 01:02:28;;;;;;;11.23;7.90;;;;;;;18.96;80.65;100665.88;4991527;28;20672;-72
2023/06/23 01:04:55;;;;;;;11.07;7.83;;;;;;;18.96;81.69;100647.91;5001820;28;20209;-73
2023/06/23 01:07:30;;;;;;;9.33;7.30;;;;;;;18.94;80.82;100636.81;4994664;28;20383;-73
2023/06/23 01:10:06;;;;;;;7.50;6.67;;;;;;;18.92;81.51;100616.94;4989486;28;20664;-73
2023/06/23 01:12:39;;;;;;;7.40;6.13;;;;;;;18.93;81.28;100605.09;4990790;28;20368;-73
2023/06/23 01:15:13;;;;;;;9.63;6.60;;;;;;;18.92;81.13;100587.50;4991946;28;20181;-73
2023/06/23 01:17:45;;;;;;;10.27;7.00;;;;;;;18.92;81.06;100572.22;4990282;28;20604;-73
2023/06/23 01:20:20;;;;;;;8.80;6.87;;;;;;;18.92;81.42;100552.69;4989663;28;20285;-72
2023/06/23 01:23:04;;;;;;;8.30;6.33;;;;;;;18.90;80.76;100529.03;4987054;28;20200;-73
2023/06/23 01:25:40;;;;;;;7.90;5.80;;;;;;;18.89;80.80;100530.16;4984650;28;20197;-73
2023/06/23 01:28:37;;;;;;;8.40;6.63;;;;;;;18.88;80.67;100514.50;4990454;28;20223;-73
2023/06/23 01:31:06;;;;;;;7.20;6.27;;;;;;;18.86;81.33;100512.19;4989304;28;20558;-73
2023/06/23 01:33:40;;;;;;;6.50;5.80;;;;;;;18.85;81.14;100521.38;4995420;28;20258;-73
2023/06/23 01:36:08;;;;;;;7.50;5.60;;;;;;;18.83;80.42;100526.31;4991535;28;20300;-73
2023/06/23 01:38:40;;;;;;;6.50;5.50;;;;;;;18.80;80.16;100526.31;4992790;28;20231;-73
2023/06/23 01:41:10;;;;;;;6.83;5.80;;;;;;;18.76;80.66;100533.59;4989289;28;20205;-73
2023/06/23 01:43:39;;;;;;;7.20;5.60;;;;;;;18.74;80.21;100538.56;4989545;28;20303;-73
2023/06/23 01:46:12;;;;;;;10.17;6.40;;;;;;;18.69;80.61;100534.34;4990501;28;20209;-73
2023/06/23 01:48:43;;;;;;;7.17;5.90;;;;;;;18.66;80.00;100528.97;4991241;28;20264;-73
2023/06/23 01:51:11;;;;;;;8.07;5.97;;;;;;;18.66;80.68;100531.66;4999153;28;20205;-72
2023/06/23 01:53:39;;;;;;;8.67;6.13;;;;;;;18.62;80.34;100534.34;5009870;28;20181;-73
2023/06/23 01:56:07;;;;;;;9.23;7.03;;;;;;;18.59;80.60;100532.44;4990303;28;20220;-73
2023/06/23 01:58:40;;;;;;;7.70;6.27;;;;;;;18.56;80.81;100530.50;4987352;28;20302;-73
2023/06/23 02:01:08;;;;;;;10.00;7.33;;;;;;;18.54;80.61;100532.03;4988618;28;20204;-73
2023/06/23 02:03:35;;;;;;;9.50;6.97;;;;;;;18.50;81.00;100529.34;4990993;28;20233;-72
2023/06/23 02:06:04;;;;;;;11.37;7.40;;;;;;;18.48;81.01;100520.91;4991329;28;20219;-73
2023/06/23 02:08:31;;;;;;;8.40;6.90;;;;;;;18.46;81.10;100517.09;4988351;28;20665;-73
2023/06/23 02:10:59;;;;;;;11.53;8.33;;;;;;;18.41;81.25;100520.16;4991988;28;20237;-73
2023/06/23 02:13:29;;;;;;;10.50;8.43;;;;;;;18.39;81.49;100509.06;4994887;28;20250;-73
2023/06/23 02:16:05;;;;;;;9.27;8.03;;;;;;;18.35;81.38;100511.75;4988394;28;20747;-73
2023/06/23 02:18:35;;;;;;;10.50;8.70;;;;;;;18.33;81.47;100503.34;4989620;28;20221;-73
2023/06/23 02:21:03;;;;;;;11.03;8.47;;;;;;;18.33;81.50;100505.25;4984232;28;20293;-73
2023/06/23 02:23:29;;;;;;;10.97;8.77;;;;;;;18.30;81.90;100504.06;5005545;28;20205;-73
2023/06/23 02:25:57;;;;;;;15.90;9.47;;;;;;;18.28;81.94;100498.34;4991089;28;20340;-73
2023/06/23 02:28:24;;;;;;;13.57;9.50;;;;;;;18.26;82.14;100505.94;4985291;28;20320;-73
2023/06/23 02:30:52;;;;;;;12.03;9.60;;;;;;;18.26;82.56;100507.88;4994201;28;20211;-73
2023/06/23 02:33:21;;;;;;;11.17;9.63;;;;;;;18.23;82.03;100506.72;4989886;28;20194;-73
2023/06/23 02:35:50;;;;;;;15.30;10.70;;;;;;;18.23;81.84;100500.59;4989385;28;20201;-73
2023/06/23 02:38:21;;;;;;;11.77;9.57;;;;;;;18.21;82.07;100492.22;4987706;28;20221;-73
2023/06/23 02:40:53;;;;;;;13.53;10.40;;;;;;;18.20;82.28;100479.97;4988486;28;20219;-72
2023/06/23 02:43:25;;;;;;;13.10;10.63;;;;;;;18.18;82.18;100487.59;5005575;28;20245;-73
2023/06/23 02:45:56;;;;;;;12.60;11.00;;;;;;;18.18;82.25;100515.13;4982085;28;20205;-72
2023/06/23 02:48:33;;;;;;;14.47;10.57;;;;;;;18.20;82.38;100528.06;4989663;28;20356;-72
2023/06/23 02:51:01;;;;;;;14.30;11.10;;;;;;;18.19;83.05;100538.03;4987230;28;20574;-73
2023/06/23 02:53:34;;;;;;;11.80;10.03;;;;;;;18.21;83.06;100548.34;4986879;28;20205;-72
2023/06/23 02:56:04;;;;;;;16.87;12.13;;;;;;;18.24;83.27;100568.97;4988581;28;20215;-72
2023/06/23 02:58:32;;;;;;;18.03;12.37;;;;;;;18.23;83.09;100581.56;4984051;28;20320;-72
2023/06/23 03:01:01;;;;;;;17.37;11.90;;;;;;;18.25;82.86;100591.88;4987871;28;20630;-72
2023/06/23 03:03:33;;;;;;;14.90;12.13;;;;;;;18.26;83.03;100612.88;4990054;28;20213;-72
2023/06/23 03:06:01;;;;;;;13.43;10.47;;;;;;;18.28;83.43;100629.34;4988413;28;20204;-72
2023/06/23 03:08:29;;;;;;;17.40;11.77;;;;;;;18.31;83.60;100636.59;4989316;28;20217;-72
2023/06/23 03:10:55;;;;;;;14.47;11.97;;;;;;;18.32;83.44;100638.13;4988145;28;20566;-72
2023/06/23 03:13:21;;;;;;;14.77;11.53;;;;;;;18.34;83.37;100629.75;4984716;28;20207;-72
2023/06/23 03:15:57;;;;;;;16.90;11.50;;;;;;;18.36;83.12;100614.88;4982782;28;20256;-72
2023/06/23 03:18:29;;;;;;;15.47;11.43;;;;;;;18.37;83.07;100592.31;4989008;28;20225;-72
2023/06/23 03:21:01;;;;;;;15.87;12.50;;;;;;;18.38;82.83;100577.06;4990310;28;20212;-72
2023/06/23 03:23:30;;;;;;;15.00;12.07;;;;;;;18.38;83.16;100572.47;4987800;28;20219;-72
2023/06/23 03:25:57;;;;;;;16.27;11.43;;;;;;;18.38;82.90;100561.78;4989749;28;20236;-72
2023/06/23 03:28:27;;;;;;;18.77;12.20;;;;;;;18.39;83.37;100547.28;4989415;28;20218;-72
2023/06/23 03:31:00;;;;;;;14.50;11.63;;;;;;;18.41;83.14;100555.69;4989487;28;20198;-72
2023/06/23 03:33:34;;;;;;;14.73;12.27;;;;;;;18.41;83.34;100561.03;4993869;28;20630;-72
2023/06/23 03:36:07;;;;;;;14.57;11.97;;;;;;;18.42;83.34;100569.81;4991428;28;20228;-72
2023/06/23 03:38:38;;;;;;;17.03;12.37;;;;;;;18.43;83.26;100572.09;4989954;28;20371;-72
2023/06/23 03:41:10;;;;;;;17.20;12.60;;;;;;;18.44;83.20;100572.88;4995608;28;20676;-72
2023/06/23 03:43:40;;;;;;;16.93;12.50;;;;;;;18.46;83.29;100594.66;4990645;28;20209;-72
2023/06/23 03:46:13;;;;;;;14.50;12.53;;;;;;;18.47;83.30;100612.25;4995286;28;20209;-72
2023/06/23 03:48:42;;;;;;;17.03;12.10;;;;;;;18.49;83.64;100609.94;4992311;28;20233;-72
2023/06/23 03:51:13;;;;;;;15.43;12.00;;;;;;;18.50;83.46;100622.16;4994343;28;20205;-72
2023/06/23 03:53:40;;;;;;;16.03;13.43;;;;;;;18.52;83.25;100630.59;4996995;28;20208;-72
2023/06/23 03:56:09;;;;;;;17.03;12.60;;;;;;;18.54;83.65;100625.63;4991314;28;20433;-72
2023/06/23 03:58:38;;;;;;;15.90;13.20;;;;;;;18.53;83.20;100627.53;4982650;28;20239;-72
2023/06/23 04:01:06;;;;;;;15.33;12.17;;;;;;;18.56;83.30;100634.81;4986147;28;20228;-72
2023/06/23 04:03:34;;;;;;;17.80;12.83;;;;;;;18.58;83.39;100632.50;4993317;28;20208;-72
2023/06/23 04:06:04;;;;;;;20.10;13.43;;;;;;;18.59;83.15;100620.69;4994074;28;20201;-72
2023/06/23 04:08:34;;;;;;;20.07;13.27;;;;;;;18.62;82.97;100621.84;4990146;28;20634;-72
2023/06/23 04:11:01;;;;;;;18.83;13.70;;;;;;;18.64;83.37;100622.22;4992515;28;20213;-72
2023/06/23 04:13:30;;;;;;;17.50;14.07;;;;;;;18.67;83.05;100621.47;4993257;28;20211;-72
2023/06/23 04:15:58;;;;;;;18.73;13.57;;;;;;;18.67;83.15;100630.25;4993403;28;20707;-72
2023/06/23 04:18:27;;;;;;;17.03;13.03;;;;;;;18.70;83.47;100637.53;4990457;28;20225;-72
2023/06/23 04:20:57;;;;;;;19.33;14.03;;;;;;;18.71;83.47;100635.59;4992534;28;20551;-72
2023/06/23 04:23:26;;;;;;;17.73;14.43;;;;;;;18.72;83.70;100642.47;4992269;28;20595;-72
2023/06/23 04:25:55;;;;;;;19.07;12.77;;;;;;;18.74;83.24;100642.88;4990154;28;20197;-72
2023/06/23 04:28:25;;;;;;;17.90;13.67;;;;;;;18.78;83.16;100657.06;4997544;28;20221;-72
2023/06/23 04:30:52;;;;;;;18.83;12.63;;;;;;;18.81;83.14;100658.94;4993657;28;20664;-72
2023/06/23 04:33:19;;;;;;;21.80;14.87;;;;;;;18.85;83.08;100665.09;4993373;28;20660;-72
2023/06/23 04:35:47;;;;;;;18.40;14.73;;;;;;;18.85;83.17;100673.88;4993814;28;20582;-72
2023/06/23 04:38:16;;;;;;;18.60;14.20;;;;;;;18.86;83.47;100672.75;4988331;28;20229;-72
2023/06/23 04:40:48;;;;;;;18.97;14.67;;;;;;;18.89;83.15;100685.34;4993726;28;20568;-72
2023/06/23 04:43:19;;;;;;;22.10;14.30;;;;;;;18.91;82.92;100684.97;4992073;28;20209;-72
2023/06/23 04:45:51;;;;;;;17.80;13.40;;;;;;;18.93;83.06;100691.47;4991316;28;20679;-72
2023/06/23 04:48:23;;;;;;;19.30;14.23;;;;;;;18.95;82.68;100681.19;4991935;28;20312;-72
2023/06/23 04:50:53;;;;;;;18.40;14.23;;;;;;;18.97;82.77;100675.44;4991614;28;20466;-72
2023/06/23 04:53:23;;;;;;;16.53;12.87;;;;;;;19.00;82.58;100675.44;4991933;28;20209;-72
2023/06/23 04:55:53;;;;;;;22.73;15.20;;;;;;;19.04;82.87;100664.75;4992963;28;20776;-72
2023/06/23 04:58:24;;;;;;;16.80;13.97;;;;;;;19.09;83.15;100664.38;4990510;28;20225;-72
2023/06/23 05:00:51;;;;;;;19.77;15.10;;;;;;;19.12;82.69;100653.69;4992349;28;20237;-72
2023/06/23 05:03:20;;;;;;;18.00;14.47;;;;;;;19.19;83.06;100659.03;4990917;28;20213;-72
2023/06/23 05:05:48;;;;;;;16.20;14.33;;;;;;;19.23;82.58;100648.34;4990164;28;20205;-72
2023/06/23 05:08:14;;;;;;;20.03;14.30;;;;;;;19.30;82.34;100648.38;4990945;28;20675;-72
2023/06/23 05:10:42;;;;;;;21.10;15.43;;;;;;;19.37;82.67;100653.72;4991657;28;20295;-72
2023/06/23 05:13:11;;;;;;;19.63;15.60;;;;;;;19.42;82.60;100670.19;4990821;28;20208;-72
2023/06/23 05:15:39;;;;;;;18.23;14.63;;;;;;;19.46;82.19;100660.22;4990084;28;20201;-72
2023/06/23 05:18:07;;;;;;;21.10;14.97;;;;;;;19.50;81.88;100639.56;4990477;28;20755;-72
2023/06/23 05:20:37;;;;;;;18.87;14.37;;;;;;;19.54;81.68;100640.34;4988828;28;20201;-72
2023/06/23 05:23:05;;;;;;;19.10;14.53;;;;;;;19.58;81.72;100648.38;4990644;28;20209;-72
2023/06/23 05:25:35;;;;;;;19.13;15.67;;;;;;;19.66;82.21;100660.63;4988527;28;20284;-72
2023/06/23 05:28:04;;;;;;;19.80;15.87;;;;;;;19.74;82.38;100687.03;4988675;28;20304;-71
2023/06/23 05:30:34;;;;;;;23.80;17.23;;;;;;;19.83;82.74;100690.09;4989624;28;20807;-72
2023/06/23 05:33:03;;;;;;;21.37;16.10;;;;;;;19.90;82.02;100694.66;4989743;28;20213;-72
2023/06/23 05:35:32;;;;;;;20.40;16.27;;;;;;;19.96;81.87;100685.06;4990198;28;20225;-72
2023/06/23 05:38:02;;;;;;;21.33;15.77;;;;;;;20.02;81.82;100686.25;4990206;28;20224;-72
2023/06/23 05:40:28;;;;;;;20.00;16.37;;;;;;;20.08;81.61;100682.03;4987944;28;20220;-72
2023/06/23 05:42:55;;;;;;;20.10;15.47;;;;;;;20.12;81.28;100678.19;4988398;28;20209;-72
2023/06/23 05:45:21;;;;;;;22.37;15.97;;;;;;;20.16;81.22;100676.25;4992839;28;20205;-72
2023/06/23 05:47:56;;;;;;;17.73;14.47;;;;;;;20.19;80.93;100664.75;4992780;28;20225;-72
2023/06/23 05:50:26;;;;;;;18.60;14.77;;;;;;;20.24;80.84;100661.66;4989835;28;20722;-72
2023/06/23 05:52:58;;;;;;;20.57;14.67;;;;;;;20.27;80.71;100655.53;4986946;28;20201;-72
2023/06/23 05:55:27;;;;;;;17.57;14.07;;;;;;;20.29;80.22;100661.28;4987766;28;20746;-72
2023/06/23 05:58:00;;;;;;;19.20;13.87;;;;;;;20.31;79.61;100652.84;4987625;28;20213;-72
2023/06/23 06:00:31;;;;;;;20.40;14.23;;;;;;;20.36;80.05;100653.22;4988821;28;20197;-72
2023/06/23 06:03:01;;;;;;;15.77;13.63;;;;;;;20.39;79.70;100655.13;4985259;28;20201;-72
2023/06/23 06:05:31;;;;;;;18.30;14.53;;;;;;;20.44;79.96;100651.28;4989136;28;20193;-71
2023/06/23 06:07:58;;;;;;;15.83;14.00;;;;;;;20.48;79.84;100650.09;4988306;28;20221;-72
2023/06/23 06:10:27;;;;;;;16.93;14.87;;;;;;;20.54;80.23;100645.84;4989552;28;20389;-72
2023/06/23 06:12:56;;;;;;;17.33;15.33;;;;;;;20.61;80.37;100643.16;4989460;28;20670;-72
2023/06/23 06:15:23;;;;;;;18.53;16.13;;;;;;;20.70;79.63;100646.16;4989052;28;20562;-72
2023/06/23 06:17:51;;;;;;;21.07;15.70;;;;;;;20.79;79.03;100657.25;4987379;28;20217;-72
2023/06/23 06:20:19;;;;;;;19.10;15.00;;;;;;;20.86;79.19;100662.56;4988746;28;20679;-72
2023/06/23 06:22:50;;;;;;;15.97;14.07;;;;;;;20.89;78.33;100669.09;4987389;28;20652;-72
2023/06/23 06:25:16;;;;;;;14.20;12.67;;;;;;;20.87;77.40;100671.38;4987840;28;20204;-72
2023/06/23 06:27:44;;;;;;;13.33;11.93;;;;;;;20.89;77.36;100669.09;4986769;28;20237;-72
2023/06/23 06:30:12;;;;;;;14.47;11.27;;;;;;;20.90;77.79;100667.97;4988158;28;20220;-72
2023/06/23 06:32:42;;;;;;;13.03;11.33;;;;;;;20.88;77.36;100657.56;4990027;28;20215;-72
2023/06/23 06:35:11;;;;;;;14.77;12.23;;;;;;;20.89;77.60;100661.03;4989230;28;20206;-72
2023/06/23 06:37:41;;;;;;;13.60;11.20;;;;;;;20.88;77.72;100664.84;4988791;28;20648;-72
2023/06/23 06:40:12;;;;;;;13.77;11.80;;;;;;;20.87;77.75;100664.09;4988545;28;20253;-72
2023/06/23 06:42:39;;;;;;;15.93;12.20;;;;;;;20.91;77.72;100666.78;4988897;28;20197;-71
2023/06/23 06:45:06;;;;;;;15.00;11.70;;;;;;;20.93;77.83;100670.63;4991036;28;20212;-72
2023/06/23 06:47:40;;;;;;;16.23;12.20;;;;;;;20.98;78.10;100664.84;4988823;28;20205;-72
2023/06/23 06:50:08;;;;;;;15.30;12.00;;;;;;;21.04;78.01;100671.31;4987834;28;20680;-72
2023/06/23 06:52:37;;;;;;;14.27;12.80;;;;;;;21.11;77.92;100665.16;4989561;28;20209;-72
2023/06/23 06:55:04;;;;;;;16.33;13.40;;;;;;;21.17;77.57;100658.94;4989330;28;20206;-71
2023/06/23 06:57:35;;;;;;;16.40;13.53;;;;;;;21.24;77.51;100661.59;4988343;28;20231;-71
2023/06/23 07:00:03;;;;;;;17.67;13.60;;;;;;;21.30;77.34;100662.69;4987761;28;20228;-71
2023/06/23 07:02:31;;;;;;;19.60;13.80;;;;;;;21.38;76.86;100656.09;4987637;28;20467;-72
2023/06/23 07:04:59;;;;;;;21.80;15.13;;;;;;;21.47;76.65;100655.66;4987704;28;20284;-72
2023/06/23 07:07:25;;;;;;;20.27;16.17;;;;;;;21.55;75.94;100657.91;4988672;28;20236;-72
2023/06/23 07:09:52;;;;;;;20.33;17.10;;;;;;;21.66;75.80;100671.22;4990778;28;20209;-72
2023/06/23 07:12:18;;;;;;;21.30;17.90;;;;;;;21.80;75.83;100658.47;4991649;28;20224;-71
2023/06/23 07:14:46;;;;;;;19.50;17.43;;;;;;;21.94;75.43;100661.00;4990171;28;20213;-71
2023/06/23 07:17:12;;;;;;;17.10;15.40;;;;;;;22.09;75.90;100667.03;4989091;28;20225;-71
2023/06/23 07:19:40;;;;;;;18.47;15.57;;;;;;;22.23;74.82;100669.53;4990924;28;20221;-71
2023/06/23 07:22:07;;;;;;;14.83;13.33;;;;;;;22.34;75.06;100673.66;4989637;28;20209;-71
2023/06/23 07:24:33;;;;;;;13.90;12.50;;;;;;;22.44;74.49;100683.56;4988830;28;20208;-71
2023/06/23 07:26:59;;;;;;;13.97;12.53;;;;;;;22.53;73.92;100673.06;4988756;28;20204;-72
2023/06/23 07:29:26;;;;;;;14.23;11.80;;;;;;;22.60;74.40;100666.81;4988255;28;20202;-72
2023/06/23 07:31:54;;;;;;;11.80;10.55;;;;;;;22.66;72.07;100674.03;4990232;28;20634;-72
2023/06/23 07:34:20;;;;;;;11.53;10.33;;;;;;;22.73;73.31;100678.59;4988259;28;20723;-72
2023/06/23 07:36:46;;;;;;;11.88;10.63;;;;;;;22.73;73.19;100678.59;4988483;28;20209;-72
2023/06/23 07:39:13;;;;;;;11.68;10.07;;;;;;;22.80;73.61;100686.56;4987570;28;20244;-71
2023/06/23 07:41:39;;;;;;;12.70;10.70;;;;;;;22.83;72.99;100685.75;4991153;28;20239;-71
2023/06/23 07:44:06;;;;;;;10.30;9.30;;;;;;;22.88;72.18;100686.09;4989083;28;20556;-71
2023/06/23 07:46:33;;;;;;;11.02;9.73;;;;;;;22.94;71.47;100686.38;4987831;28;20201;-71
2023/06/23 07:49:01;;;;;;;11.95;9.50;;;;;;;22.96;70.79;100689.41;4988474;28;20313;-71
2023/06/23 07:51:28;;;;;;;13.10;9.45;;;;;;;22.97;72.58;100697.09;4987681;28;20277;-72
2023/06/23 07:53:55;;;;;;;10.57;9.48;;;;;;;22.98;72.19;100698.63;4988559;28;20669;-72
2023/06/23 07:56:21;;;;;;;11.25;10.15;;;;;;;22.95;72.26;100702.13;4988692;28;20283;-72
2023/06/23 07:58:48;;;;;;;13.30;10.15;;;;;;;22.93;71.50;100704.44;4988761;28;20225;-71
2023/06/23 08:01:15;;;;;;;12.40;10.30;;;;;;;22.91;71.40;100704.09;4988169;28;20296;-71
2023/06/23 08:03:47;;;;;;;12.43;9.98;;;;;;;22.96;71.83;100703.66;4987967;28;20205;-71
2023/06/23 08:06:17;;;;;;;11.27;9.75;;;;;;;22.98;73.21;100705.94;4986301;28;20206;-71
2023/06/23 08:08:47;;;;;;;11.77;10.18;;;;;;;22.97;71.21;100712.50;4987641;28;20252;-71
2023/06/23 08:11:13;;;;;;;11.00;9.27;;;;;;;22.97;71.21;100720.59;4988701;28;20209;-71
2023/06/23 08:13:40;;;;;;;10.77;9.68;;;;;;;22.93;71.69;100731.38;4989248;28;20299;-71
2023/06/23 08:16:06;;;;;;;12.10;9.55;;;;;;;22.91;71.89;100725.66;4988279;28;20205;-72
2023/06/23 08:18:32;;;;;;;11.45;9.52;;;;;;;22.87;71.30;100716.84;4988155;28;20708;-71
2023/06/23 08:20:59;;;;;;;13.77;9.82;;;;;;;22.88;72.84;100714.94;4989393;28;20225;-71
2023/06/23 08:23:26;;;;;;;12.10;10.40;;;;;;;22.79;70.11;100718.13;4989442;28;20207;-71
2023/06/23 08:25:53;;;;;;;12.48;9.68;;;;;;;22.84;72.81;100719.59;4987920;28;20232;-71
2023/06/23 08:28:19;;;;;;;12.52;9.85;;;;;;;22.86;71.58;100719.97;4989576;28;20316;-71
2023/06/23 08:30:45;;;;;;;12.98;9.77;;;;;;;22.84;71.82;100723.06;4988684;28;20202;-71
2023/06/23 08:33:12;;;;;;;10.73;9.63;;;;;;;22.87;73.21;100713.41;4988033;28;20209;-71
2023/06/23 08:35:38;;;;;;;10.85;9.10;;;;;;;22.88;74.37;100718.41;4989253;28;20201;-71
2023/06/23 08:38:05;;;;;;;11.55;10.15;;;;;;;22.90;72.51;100729.53;4989277;28;20240;-71
2023/06/23 08:40:34;;;;;;;11.60;9.20;;;;;;;22.90;72.47;100717.97;4987776;28;20615;-71
2023/06/23 08:43:01;;;;;;;11.10;9.35;;;;;;;22.95;72.29;100739.06;4987675;28;20209;-71
2023/06/23 08:45:28;;;;;;;11.32;9.40;;;;;;;22.97;74.54;100731.38;4989688;28;20751;-71
2023/06/23 08:48:01;;;;;;;10.60;9.45;;;;;;;22.98;74.58;100735.56;4987728;28;20235;-71
2023/06/23 08:50:28;;;;;;;10.70;8.98;;;;;;;22.98;75.99;100739.00;4987706;28;20208;-71
2023/06/23 08:52:58;;;;;;;12.57;9.77;;;;;;;22.94;72.96;100738.31;4989406;28;20205;-71
2023/06/23 08:55:25;;;;;;;11.85;9.80;;;;;;;22.91;74.74;100743.72;4990687;28;20260;-71
2023/06/23 08:57:53;;;;;;;11.33;10.13;;;;;;;22.87;74.34;100746.47;4989063;28;20225;-71
2023/06/23 09:00:21;;;;;;;12.63;9.40;;;;;;;22.85;75.38;100751.50;4987664;28;20304;-71
2023/06/23 09:02:47;;;;;;;10.32;9.10;;;;;;;22.84;75.75;100751.91;4989281;28;20313;-71
2023/06/23 09:05:14;;;;;;;9.67;8.70;;;;;;;22.81;75.17;100741.97;4991532;28;20193;-71
2023/06/23 09:07:42;;;;;;;11.67;8.63;;;;;;;22.83;75.36;100756.56;4988239;28;20232;-71
2023/06/23 09:10:11;;;;;;;10.87;9.10;;;;;;;22.86;72.23;100752.28;4988209;28;20387;-71
2023/06/23 09:12:42;;;;;;;10.50;8.70;;;;;;;22.89;70.47;100754.16;4987978;28;20248;-71
2023/06/23 09:15:11;;;;;;;10.90;9.13;;;;;;;23.01;74.55;100750.91;4989059;28;20210;-71
2023/06/23 09:17:39;;;;;;;11.77;9.33;;;;;;;23.14;72.95;100747.28;4987991;28;20649;-71
2023/06/23 09:20:07;;;;;;;11.35;9.85;;;;;;;23.33;71.90;100754.72;4987109;28;20221;-71
2023/06/23 09:22:34;;;;;;;9.73;8.40;;;;;;;23.50;75.67;100767.19;4984391;28;20224;-71
2023/06/23 09:25:00;;;;;;;11.25;9.32;;;;;;;23.69;73.83;100771.16;4986595;28;20200;-71
2023/06/23 09:27:40;;;;;;;11.23;9.23;;;;;;;23.83;75.74;100771.69;4987726;28;20224;-71
2023/06/23 09:30:09;;;;;;;10.23;9.23;;;;;;;23.90;71.50;100773.56;4986951;28;20680;-71
2023/06/23 09:32:37;;;;;;;9.43;8.07;;;;;;;23.97;72.53;100776.13;4986869;28;20206;-71
2023/06/23 09:35:03;;;;;;;11.77;9.55;;;;;;;24.02;71.77;100780.28;4987415;28;20215;-71
2023/06/23 09:37:36;;;;;;;10.80;9.70;;;;;;;24.02;70.35;100775.66;4986176;28;20225;-71
2023/06/23 09:40:06;;;;;;;10.32;9.23;;;;;;;24.03;72.49;100787.97;4985990;28;20213;-71
2023/06/23 09:42:33;;;;;;;10.68;9.13;;;;;;;24.03;70.70;100785.28;4986799;28;20205;-71
2023/06/23 09:45:00;;;;;;;12.02;9.07;;;;;;;23.98;69.61;100785.75;4987597;28;20213;-71
2023/06/23 09:47:27;;;;;;;10.98;8.60;;;;;;;23.96;69.17;100788.09;4987954;28;20221;-71
2023/06/23 09:49:55;;;;;;;15.30;9.38;;;;;;;23.97;71.70;100781.53;4987842;28;20296;-71
2023/06/23 09:52:24;;;;;;;9.95;8.95;;;;;;;23.99;73.18;100778.41;4987831;28;20586;-71
2023/06/23 09:54:51;;;;;;;11.23;9.13;;;;;;;24.01;75.25;100781.47;4987422;28;20224;-71
2023/06/23 09:57:19;;;;;;;10.45;8.63;;;;;;;23.99;74.71;100779.16;4986669;28;20221;-71
2023/06/23 09:59:49;;;;;;;10.52;8.63;;;;;;;23.98;72.47;100771.50;4985134;28;20700;-71
2023/06/23 10:02:21;;;;;;;12.20;9.15;;;;;;;23.95;72.61;100769.63;4988330;28;20208;-71
2023/06/23 10:04:48;;;;;;;9.07;8.10;;;;;;;23.94;72.11;100758.06;4986988;28;20205;-71
2023/06/23 10:07:21;;;;;;;12.50;8.98;;;;;;;23.94;70.08;100755.34;4985317;28;20229;-71
2023/06/23 10:09:51;;;;;;;9.60;8.57;;;;;;;24.00;72.40;100759.13;4988121;28;20209;-71
2023/06/23 10:12:21;;;;;;;8.70;7.90;;;;;;;24.09;73.07;100755.91;4986316;28;20240;-71
2023/06/23 10:14:48;;;;;;;9.52;8.20;;;;;;;24.17;68.06;100754.59;4986483;28;20280;-71
2023/06/23 10:17:15;;;;;;;10.25;8.27;;;;;;;24.23;69.99;100764.50;4987123;28;20308;-71
2023/06/23 10:19:42;;;;;;;9.35;8.35;;;;;;;24.34;69.33;100762.38;4986319;28;20272;-71
2023/06/23 10:22:09;;;;;;;10.25;7.85;;;;;;;24.46;68.25;100763.69;4988237;28;20211;-71
2023/06/23 10:24:37;;;;;;;8.60;7.70;;;;;;;24.51;70.04;100766.66;4986488;28;20224;-71
2023/06/23 10:27:05;;;;;;;10.93;8.18;;;;;;;24.50;66.45;100769.81;4986846;28;20672;-71
2023/06/23 10:29:34;;;;;;;8.50;7.65;;;;;;;24.45;66.50;100770.28;4987095;28;20200;-71
2023/06/23 10:32:02;;;;;;;11.57;8.32;;;;;;;24.36;69.40;100772.75;4986196;28;20197;-71
2023/06/23 10:34:29;;;;;;;9.27;8.13;;;;;;;24.19;66.85;100771.13;4985210;28;20702;-71
2023/06/23 10:36:59;;;;;;;9.65;8.57;;;;;;;24.06;67.69;100770.97;4986872;28;20263;-71
2023/06/23 10:39:27;;;;;;;8.93;8.02;;;;;;;24.00;68.70;100777.25;4989053;28;20216;-71
2023/06/23 10:41:58;;;;;;;10.30;7.55;;;;;;;23.86;66.94;100775.50;4987211;28;20219;-71
2023/06/23 10:44:25;;;;;;;9.38;8.48;;;;;;;23.75;67.63;100770.28;4987322;28;20634;-71
2023/06/23 10:46:51;;;;;;;12.50;9.10;;;;;;;23.72;70.51;100774.97;4986865;28;20293;-71
2023/06/23 10:49:18;;;;;;;14.93;10.25;;;;;;;23.58;69.95;100768.63;4986508;28;20217;-71
2023/06/23 10:51:45;;;;;;;15.73;10.60;;;;;;;23.41;70.76;100765.44;4989990;28;20296;-71
2023/06/23 10:54:11;;;;;;;11.67;10.30;;;;;;;23.25;69.99;100790.28;4987260;28;20667;-71
2023/06/23 10:56:41;;;;;;;13.70;12.13;;;;;;;23.09;71.20;100804.31;4987607;28;20198;-71
2023/06/23 10:59:20;;;;;;;19.10;11.73;;;;;;;22.98;72.25;100811.75;4986645;28;20226;-71
2023/06/23 11:02:09;;;;;;;15.33;12.17;;;;;;;22.88;71.78;100801.09;4988002;28;20244;-71
2023/06/23 11:04:41;;;;;;;17.13;13.67;;;;;;;22.82;72.54;100791.94;4989818;28;20988;-71
2023/06/23 11:07:08;;;;;;;16.17;14.07;;;;;;;22.81;73.81;100798.50;4986400;28;20224;-71
2023/06/23 11:09:49;;;;;;;14.67;13.13;;;;;;;22.83;73.31;100798.84;4988406;28;20197;-71
2023/06/23 11:12:39;;;;;;;16.40;13.70;;;;;;;22.89;73.64;100795.31;4986094;28;20209;-70
2023/06/23 11:15:15;;;;;;;16.20;12.20;;;;;;;22.95;72.99;100795.63;4987401;28;20202;-70
2023/06/23 11:17:43;;;;;;;13.47;11.90;;;;;;;23.03;73.10;100803.22;4986483;28;20221;-70
2023/06/23 11:20:14;;;;;;;13.50;12.10;;;;;;;23.08;74.95;100800.06;4986510;28;20225;-71
2023/06/23 11:22:52;;;;;;;14.13;12.23;;;;;;;23.13;75.39;100796.94;4986471;28;20783;-72